Terminal Aerodrome Forecast
Issued by NWS Albany, NY

Home | Current Version | Previous Version | Text Only | Print | Product List | Glossary On
Versions: 1 2 3 4 5 6 7 8 9 10 11 12 13 14
000
FTUS41 KALY 212300
TAFALB
TAF
KALB 212334Z 2200/2224 17010KT P6SM SCT030 BKN080
      TEMPO 2201/2203 29015G25KT 3SM -SHRA BR OVC025
     FM220300 23008KT P6SM VCSH SCT030 BKN040
     FM220600 27012KT P6SM SCT025 BKN035
     FM221400 29016G27KT P6SM SCT035 BKN045
     FM222300 28011G18KT P6SM SCT050=

USA.gov is the U.S. government's official web portal to all federal, state and local government web resources and services.